sensor_id;sensor_type;location;lat;lon;timestamp;pressure;altitude;pressure_sealevel;temperature;humidity
51297;BME280;37380;45.186;9.792;2023-05-16T00:01:15;100131.22;;;15.15;100.00
51297;BME280;37380;45.186;9.792;2023-05-16T00:03:42;100153.97;;;15.10;100.00
51297;BME280;37380;45.186;9.792;2023-05-16T00:06:09;100096.50;;;14.54;100.00
51297;BME280;37380;45.186;9.792;2023-05-16T00:08:37;100128.97;;;14.59;100.00
51297;BME280;37380;45.186;9.792;2023-05-16T00:11:04;100105.31;;;14.59;100.00
51297;BME280;37380;45.186;9.792;2023-05-16T00:13:32;100036.66;;;14.22;100.00
51297;BME280;37380;45.186;9.792;2023-05-16T00:15:59;100082.38;;;14.44;100.00
51297;BME280;37380;45.186;9.792;2023-05-16T00:18:35;100085.72;;;14.26;100.00
51297;BME280;37380;45.186;9.792;2023-05-16T00:21:38;100077.00;;;14.31;100.00
51297;BME280;37380;45.186;9.792;2023-05-16T00:24:34;100117.66;;;14.63;100.00
51297;BME280;37380;45.186;9.792;2023-05-16T00:27:01;100060.31;;;14.27;100.00
51297;BME280;37380;45.186;9.792;2023-05-16T00:29:30;100120.16;;;14.54;100.00
51297;BME280;37380;45.186;9.792;2023-05-16T00:31:57;100095.56;;;14.46;100.00
51297;BME280;37380;45.186;9.792;2023-05-16T00:34:30;100082.31;;;14.38;100.00
51297;BME280;37380;45.186;9.792;2023-05-16T00:37:26;100092.03;;;14.44;100.00
51297;BME280;37380;45.186;9.792;2023-05-16T00:39:53;100114.97;;;14.59;100.00
51297;BME280;37380;45.186;9.792;2023-05-16T00:42:20;100090.38;;;14.54;100.00
51297;BME280;37380;45.186;9.792;2023-05-16T00:44:47;100085.06;;;14.49;100.00
51297;BME280;37380;45.186;9.792;2023-05-16T00:47:14;100104.44;;;14.59;100.00
51297;BME280;37380;45.186;9.792;2023-05-16T00:49:41;100102.75;;;14.65;100.00
51297;BME280;37380;45.186;9.792;2023-05-16T00:52:08;100081.63;;;14.56;100.00
51297;BME280;37380;45.186;9.792;2023-05-16T00:54:36;100108.97;;;14.77;100.00
51297;BME280;37380;45.186;9.792;2023-05-16T00:57:06;100027.81;;;14.16;100.00
51297;BME280;37380;45.186;9.792;2023-05-16T00:59:35;100074.34;;;14.27;100.00
51297;BME280;37380;45.186;9.792;2023-05-16T01:02:02;100081.47;;;14.42;100.00
51297;BME280;37380;45.186;9.792;2023-05-16T01:04:29;100077.06;;;14.38;100.00
51297;BME280;37380;45.186;9.792;2023-05-16T01:06:56;100037.34;;;14.06;100.00
51297;BME280;37380;45.186;9.792;2023-05-16T01:09:24;100072.59;;;14.26;100.00
51297;BME280;37380;45.186;9.792;2023-05-16T01:17:28;100093.53;;;14.17;100.00
51297;BME280;37380;45.186;9.792;2023-05-16T01:28:47;100053.78;;;13.87;100.00
51297;BME280;37380;45.186;9.792;2023-05-16T01:31:14;100038.78;;;13.75;100.00
51297;BME280;37380;45.186;9.792;2023-05-16T01:33:50;100079.19;;;13.88;100.00
51297;BME280;37380;45.186;9.792;2023-05-16T01:37:10;100039.41;;;13.54;100.00
51297;BME280;37380;45.186;9.792;2023-05-16T01:40:03;100010.44;;;13.45;100.00
51297;BME280;37380;45.186;9.792;2023-05-16T01:42:36;100026.50;;;13.72;100.00
51297;BME280;37380;45.186;9.792;2023-05-16T01:45:10;100058.38;;;14.06;100.00
51297;BME280;37380;45.186;9.792;2023-05-16T01:47:41;100041.75;;;14.09;100.00
51297;BME280;37380;45.186;9.792;2023-05-16T01:50:14;100040.13;;;14.21;100.00
51297;BME280;37380;45.186;9.792;2023-05-16T01:52:44;100042.88;;;14.35;100.00
51297;BME280;37380;45.186;9.792;2023-05-16T01:55:23;100017.31;;;14.14;100.00
51297;BME280;37380;45.186;9.792;2023-05-16T01:57:58;99991.72;;;13.95;100.00
51297;BME280;37380;45.186;9.792;2023-05-16T02:00:27;99891.41;;;13.36;100.00
51297;BME280;37380;45.186;9.792;2023-05-16T02:03:05;100028.84;;;14.32;100.00
51297;BME280;37380;45.186;9.792;2023-05-16T02:05:59;100013.06;;;14.29;100.00
51297;BME280;37380;45.186;9.792;2023-05-16T02:08:53;99991.16;;;14.30;100.00
51297;BME280;37380;45.186;9.792;2023-05-16T02:11:20;99980.38;;;13.97;100.00
51297;BME280;37380;45.186;9.792;2023-05-16T02:13:48;99988.13;;;13.87;100.00
51297;BME280;37380;45.186;9.792;2023-05-16T02:16:15;99936.25;;;13.61;100.00
51297;BME280;37380;45.186;9.792;2023-05-16T02:18:42;99987.22;;;13.83;100.00
51297;BME280;37380;45.186;9.792;2023-05-16T02:21:10;99940.63;;;13.59;100.00
51297;BME280;37380;45.186;9.792;2023-05-16T02:23:38;100012.97;;;14.21;100.00
51297;BME280;37380;45.186;9.792;2023-05-16T02:26:05;99970.75;;;14.01;100.00
51297;BME280;37380;45.186;9.792;2023-05-16T02:28:32;99982.25;;;14.12;100.00
51297;BME280;37380;45.186;9.792;2023-05-16T02:30:59;99981.16;;;13.90;100.00
51297;BME280;37380;45.186;9.792;2023-05-16T02:33:34;99936.19;;;13.53;100.00
51297;BME280;37380;45.186;9.792;2023-05-16T02:36:28;99940.53;;;13.50;100.00
51297;BME280;37380;45.186;9.792;2023-05-16T02:38:55;99984.66;;;13.88;100.00
51297;BME280;37380;45.186;9.792;2023-05-16T02:41:22;99979.41;;;13.88;100.00
51297;BME280;37380;45.186;9.792;2023-05-16T02:43:49;99997.00;;;13.98;100.00
51297;BME280;37380;45.186;9.792;2023-05-16T02:46:21;99979.34;;;13.83;100.00
51297;BME280;37380;45.186;9.792;2023-05-16T02:48:49;99977.53;;;13.77;100.00
51297;BME280;37380;45.186;9.792;2023-05-16T02:51:17;99833.97;;;12.85;100.00
51297;BME280;37380;45.186;9.792;2023-05-16T02:53:44;99850.84;;;13.07;100.00
51297;BME280;37380;45.186;9.792;2023-05-16T02:56:11;99935.38;;;13.61;100.00
51297;BME280;37380;45.186;9.792;2023-05-16T02:58:39;99984.72;;;13.94;100.00
51297;BME280;37380;45.186;9.792;2023-05-16T03:01:06;99876.47;;;13.31;100.00
51297;BME280;37380;45.186;9.792;2023-05-16T03:03:40;99969.81;;;13.91;100.00
51297;BME280;37380;45.186;9.792;2023-05-16T03:06:42;99948.59;;;13.73;100.00
51297;BME280;37380;45.186;9.792;2023-05-16T03:09:37;99924.00;;;13.58;100.00
51297;BME280;37380;45.186;9.792;2023-05-16T03:12:04;99947.63;;;13.60;100.00
51297;BME280;37380;45.186;9.792;2023-05-16T03:14:33;99971.38;;;13.74;100.00
51297;BME280;37380;45.186;9.792;2023-05-16T03:17:02;99973.13;;;13.73;100.00
51297;BME280;37380;45.186;9.792;2023-05-16T03:19:29;99824.19;;;12.70;100.00
51297;BME280;37380;45.186;9.792;2023-05-16T03:21:56;99877.13;;;13.13;100.00
51297;BME280;37380;45.186;9.792;2023-05-16T03:24:23;99886.84;;;13.23;100.00
51297;BME280;37380;45.186;9.792;2023-05-16T03:26:51;99982.69;;;13.67;100.00
51297;BME280;37380;45.186;9.792;2023-05-16T03:29:20;99943.84;;;13.33;100.00
51297;BME280;37380;45.186;9.792;2023-05-16T03:31:47;99988.84;;;13.72;100.00
51297;BME280;37380;45.186;9.792;2023-05-16T03:34:21;99972.72;;;13.36;100.00
51297;BME280;37380;45.186;9.792;2023-05-16T03:37:15;99953.38;;;13.27;100.00
51297;BME280;37380;45.186;9.792;2023-05-16T03:39:42;99896.03;;;12.87;100.00
51297;BME280;37380;45.186;9.792;2023-05-16T03:42:09;99949.69;;;13.14;100.00
51297;BME280;37380;45.186;9.792;2023-05-16T03:44:36;99935.69;;;13.12;100.00
51297;BME280;37380;45.186;9.792;2023-05-16T03:47:03;99965.50;;;13.19;100.00
51297;BME280;37380;45.186;9.792;2023-05-16T03:49:30;99959.31;;;13.12;100.00
51297;BME280;37380;45.186;9.792;2023-05-16T03:51:57;99847.94;;;12.18;100.00
51297;BME280;37380;45.186;9.792;2023-05-16T03:54:24;99853.09;;;12.11;100.00
51297;BME280;37380;45.186;9.792;2023-05-16T03:56:51;99922.75;;;12.59;100.00
51297;BME280;37380;45.186;9.792;2023-05-16T03:59:18;99953.59;;;12.78;100.00
51297;BME280;37380;45.186;9.792;2023-05-16T04:01:52;99978.31;;;12.97;100.00
51297;BME280;37380;45.186;9.792;2023-05-16T04:04:46;99975.81;;;13.03;100.00
51297;BME280;37380;45.186;9.792;2023-05-16T04:07:13;99948.53;;;12.90;100.00
51297;BME280;37380;45.186;9.792;2023-05-16T04:09:40;99989.31;;;13.32;100.00
51297;BME280;37380;45.186;9.792;2023-05-16T04:12:07;99970.84;;;13.26;100.00
51297;BME280;37380;45.186;9.792;2023-05-16T04:14:34;99967.38;;;13.27;100.00
51297;BME280;37380;45.186;9.792;2023-05-16T04:17:01;99969.06;;;13.24;100.00
51297;BME280;37380;45.186;9.792;2023-05-16T04:19:35;99970.69;;;13.16;100.00
51297;BME280;37380;45.186;9.792;2023-05-16T04:22:36;99936.47;;;13.05;100.00
51297;BME280;37380;45.186;9.792;2023-05-16T04:25:30;99961.19;;;13.24;100.00
51297;BME280;37380;45.186;9.792;2023-05-16T04:27:57;99892.81;;;13.10;100.00
51297;BME280;37380;45.186;9.792;2023-05-16T04:30:24;99955.38;;;13.48;100.00
51297;BME280;37380;45.186;9.792;2023-05-16T04:32:51;99973.88;;;13.60;100.00
51297;BME280;37380;45.186;9.792;2023-05-16T04:35:26;99911.22;;;13.13;100.00
51297;BME280;37380;45.186;9.792;2023-05-16T04:38:21;99951.88;;;13.47;100.00
51297;BME280;37380;45.186;9.792;2023-05-16T04:40:48;99951.16;;;13.62;100.00
51297;BME280;37380;45.186;9.792;2023-05-16T04:43:18;99944.13;;;13.61;100.00
51297;BME280;37380;45.186;9.792;2023-05-16T04:45:45;99940.69;;;13.65;100.00
51297;BME280;37380;45.186;9.792;2023-05-16T04:48:12;99929.38;;;13.75;100.00
51297;BME280;37380;45.186;9.792;2023-05-16T04:50:39;99905.41;;;13.40;100.00
51297;BME280;37380;45.186;9.792;2023-05-16T04:53:06;99976.69;;;13.80;100.00
51297;BME280;37380;45.186;9.792;2023-05-16T04:55:33;99936.31;;;13.66;100.00
51297;BME280;37380;45.186;9.792;2023-05-16T04:58:00;99924.94;;;13.70;100.00
51297;BME280;37380;45.186;9.792;2023-05-16T05:00:27;99803.50;;;12.96;100.00
51297;BME280;37380;45.186;9.792;2023-05-16T05:02:55;99969.94;;;14.07;100.00
51297;BME280;37380;45.186;9.792;2023-05-16T05:05:22;99962.09;;;14.10;100.00
51297;BME280;37380;45.186;9.792;2023-05-16T05:07:49;99974.50;;;14.31;100.00
51297;BME280;37380;45.186;9.792;2023-05-16T05:10:16;99957.88;;;14.30;100.00
51297;BME280;37380;45.186;9.792;2023-05-16T05:12:50;99989.63;;;14.56;100.00
51297;BME280;37380;45.186;9.792;2023-05-16T05:15:44;99949.06;;;14.23;100.00
51297;BME280;37380;45.186;9.792;2023-05-16T05:18:11;99974.63;;;14.43;100.00
51297;BME280;37380;45.186;9.792;2023-05-16T05:20:38;99997.50;;;14.56;100.00
51297;BME280;37380;45.186;9.792;2023-05-16T05:23:12;99982.41;;;14.34;100.00
51297;BME280;37380;45.186;9.792;2023-05-16T05:26:13;99916.59;;;14.15;100.00
51297;BME280;37380;45.186;9.792;2023-05-16T05:29:01;99960.63;;;14.50;100.00
51297;BME280;37380;45.186;9.792;2023-05-16T05:31:32;99952.84;;;14.55;100.00
51297;BME280;37380;45.186;9.792;2023-05-16T05:34:07;99984.44;;;14.65;100.00
51297;BME280;37380;45.186;9.792;2023-05-16T05:37:08;99964.41;;;14.84;100.00
51297;BME280;37380;45.186;9.792;2023-05-16T05:39:55;99944.31;;;14.99;100.00
51297;BME280;37380;45.186;9.792;2023-05-16T05:42:22;99915.31;;;14.85;100.00
51297;BME280;37380;45.186;9.792;2023-05-16T05:44:49;99928.50;;;14.97;100.00
51297;BME280;37380;45.186;9.792;2023-05-16T05:47:16;99983.94;;;15.37;100.00
51297;BME280;37380;45.186;9.792;2023-05-16T05:49:43;99983.09;;;15.52;100.00
51297;BME280;37380;45.186;9.792;2023-05-16T05:52:10;99991.06;;;15.69;100.00
51297;BME280;37380;45.186;9.792;2023-05-16T05:54:37;99960.28;;;15.52;100.00
51297;BME280;37380;45.186;9.792;2023-05-16T05:57:04;99951.56;;;15.69;100.00
51297;BME280;37380;45.186;9.792;2023-05-16T05:59:31;99977.09;;;16.00;100.00
51297;BME280;37380;45.186;9.792;2023-05-16T06:01:59;99977.09;;;16.16;100.00
51297;BME280;37380;45.186;9.792;2023-05-16T06:04:26;99949.00;;;16.15;100.00
51297;BME280;37380;45.186;9.792;2023-05-16T06:06:54;99966.53;;;16.28;100.00
51297;BME280;37380;45.186;9.792;2023-05-16T06:09:21;99837.41;;;15.47;100.00
51297;BME280;37380;45.186;9.792;2023-05-16T06:11:48;99944.56;;;16.17;100.00
51297;BME280;37380;45.186;9.792;2023-05-16T06:14:15;99988.50;;;16.35;100.00
51297;BME280;37380;45.186;9.792;2023-05-16T06:16:49;100005.22;;;16.32;100.00
51297;BME280;37380;45.186;9.792;2023-05-16T06:19:50;99963.03;;;16.17;100.00
51297;BME280;37380;45.186;9.792;2023-05-16T06:22:51;99992.03;;;16.21;100.00
51297;BME280;37380;45.186;9.792;2023-05-16T06:25:45;99952.47;;;16.04;100.00
51297;BME280;37380;45.186;9.792;2023-05-16T06:28:12;99994.66;;;16.27;100.00
51297;BME280;37380;45.186;9.792;2023-05-16T06:30:39;99939.28;;;15.88;100.00
51297;BME280;37380;45.186;9.792;2023-05-16T06:33:14;100012.22;;;16.39;100.00
51297;BME280;37380;45.186;9.792;2023-05-16T06:36:15;99976.22;;;16.09;100.00
51297;BME280;37380;45.186;9.792;2023-05-16T06:39:16;99996.41;;;16.21;100.00
51297;BME280;37380;45.186;9.792;2023-05-16T06:41:59;99994.69;;;16.29;100.00
51297;BME280;37380;45.186;9.792;2023-05-16T06:44:30;100011.38;;;16.20;100.00
51297;BME280;37380;45.186;9.792;2023-05-16T06:46:57;99979.72;;;16.10;100.00
51297;BME280;37380;45.186;9.792;2023-05-16T06:49:24;99991.16;;;16.15;100.00
51297;BME280;37380;45.186;9.792;2023-05-16T06:51:51;100013.09;;;16.34;100.00
51297;BME280;37380;45.186;9.792;2023-05-16T06:54:25;100019.28;;;16.33;100.00
51297;BME280;37380;45.186;9.792;2023-05-16T07:01:59;99789.09;;;14.97;100.00
51297;BME280;37380;45.186;9.792;2023-05-16T07:06:00;99789.06;;;14.94;100.00
51297;BME280;37380;45.186;9.792;2023-05-16T08:19:52;100057.94;;;16.35;100.00
51297;BME280;37380;45.186;9.792;2023-05-16T08:23:28;100027.19;;;16.29;100.00
51297;BME280;37380;45.186;9.792;2023-05-16T08:26:35;99753.94;;;14.61;100.00
51297;BME280;37380;45.186;9.792;2023-05-16T08:33:43;99924.13;;;15.04;100.00
51297;BME280;37380;45.186;9.792;2023-05-16T08:37:26;99739.69;;;14.12;100.00
51297;BME280;37380;45.186;9.792;2023-05-16T09:11:49;99925.25;;;15.96;100.00
51297;BME280;37380;45.186;9.792;2023-05-16T09:14:16;99976.22;;;16.38;100.00
51297;BME280;37380;45.186;9.792;2023-05-16T09:16:44;100003.44;;;16.45;100.00
51297;BME280;37380;45.186;9.792;2023-05-16T09:19:12;100003.44;;;16.37;100.00
51297;BME280;37380;45.186;9.792;2023-05-16T09:21:40;100065.84;;;16.81;100.00
51297;BME280;37380;45.186;9.792;2023-05-16T09:24:08;100068.50;;;16.90;100.00
51297;BME280;37380;45.186;9.792;2023-05-16T09:26:37;100074.63;;;17.12;100.00
51297;BME280;37380;45.186;9.792;2023-05-16T09:29:11;99975.31;;;16.51;100.00
51297;BME280;37380;45.186;9.792;2023-05-16T09:31:39;100029.78;;;16.74;100.00
51297;BME280;37380;45.186;9.792;2023-05-16T09:34:13;100049.16;;;16.42;100.00
51297;BME280;37380;45.186;9.792;2023-05-16T09:37:09;100006.97;;;16.33;100.00
51297;BME280;37380;45.186;9.792;2023-05-16T09:39:51;100063.19;;;16.26;100.00
51297;BME280;37380;45.186;9.792;2023-05-16T09:42:25;100085.19;;;16.68;100.00
51297;BME280;37380;45.186;9.792;2023-05-16T09:45:19;100094.91;;;16.90;100.00
51297;BME280;37380;45.186;9.792;2023-05-16T09:47:46;100086.09;;;16.85;100.00
51297;BME280;37380;45.186;9.792;2023-05-16T09:50:14;100052.66;;;16.66;100.00
51297;BME280;37380;45.186;9.792;2023-05-16T09:52:43;100121.25;;;17.16;100.00
51297;BME280;37380;45.186;9.792;2023-05-16T09:55:10;100043.88;;;16.55;100.00
51297;BME280;37380;45.186;9.792;2023-05-16T09:57:38;100068.50;;;16.81;100.00
51297;BME280;37380;45.186;9.792;2023-05-16T10:00:06;100026.31;;;16.87;100.00
51297;BME280;37380;45.186;9.792;2023-05-16T10:02:37;100016.63;;;16.48;100.00
51297;BME280;37380;45.186;9.792;2023-05-16T10:05:14;100034.22;;;16.55;100.00
51297;BME280;37380;45.186;9.792;2023-05-16T10:08:15;100050.91;;;17.05;100.00
51297;BME280;37380;45.186;9.792;2023-05-16T10:11:05;100080.69;;;17.54;100.00
51297;BME280;37380;45.186;9.792;2023-05-16T10:13:34;100097.34;;;17.67;100.00
51297;BME280;37380;45.186;9.792;2023-05-16T10:16:07;100051.59;;;17.53;100.00
51297;BME280;37380;45.186;9.792;2023-05-16T10:18:37;100047.25;;;17.44;100.00
51297;BME280;37380;45.186;9.792;2023-05-16T10:21:09;100040.72;;;18.19;100.00
51297;BME280;37380;45.186;9.792;2023-05-16T10:23:41;100089.03;;;18.38;100.00
51297;BME280;37380;45.186;9.792;2023-05-16T10:26:10;100099.72;;;18.25;100.00
51297;BME280;37380;45.186;9.792;2023-05-16T10:28:47;100059.66;;;16.09;100.00
51297;BME280;37380;45.186;9.792;2023-05-16T10:31:48;100089.53;;;16.12;100.00
51297;BME280;37380;45.186;9.792;2023-05-16T10:34:49;100087.81;;;16.29;100.00
51297;BME280;37380;45.186;9.792;2023-05-16T10:37:50;100039.16;;;15.25;100.00
51297;BME280;37380;45.186;9.792;2023-05-16T10:40:47;100063.72;;;15.25;100.00
51297;BME280;37380;45.186;9.792;2023-05-16T10:43:26;100106.78;;;15.44;100.00
51297;BME280;37380;45.186;9.792;2023-05-16T10:46:07;100101.47;;;15.35;100.00
51297;BME280;37380;45.186;9.792;2023-05-16T10:48:39;100109.44;;;15.46;100.00
51297;BME280;37380;45.186;9.792;2023-05-16T10:53:53;100105.91;;;15.44;100.00
51297;BME280;37380;45.186;9.792;2023-05-16T10:56:22;100101.47;;;15.30;100.00
51297;BME280;37380;45.186;9.792;2023-05-16T10:58:52;100126.06;;;15.34;100.00
51297;BME280;37380;45.186;9.792;2023-05-16T11:06:30;100108.56;;;15.42;100.00
51297;BME280;37380;45.186;9.792;2023-05-16T11:09:05;100111.31;;;15.65;100.00
51297;BME280;37380;45.186;9.792;2023-05-16T11:11:44;100036.34;;;14.94;100.00
51297;BME280;37380;45.186;9.792;2023-05-16T11:17:15;100078.50;;;15.09;100.00
51297;BME280;37380;45.186;9.792;2023-05-16T11:19:51;100060.91;;;14.96;100.00
51297;BME280;37380;45.186;9.792;2023-05-16T11:22:23;100031.88;;;14.78;100.00
51297;BME280;37380;45.186;9.792;2023-05-16T11:27:24;100046.91;;;15.06;100.00
51297;BME280;37380;45.186;9.792;2023-05-16T11:29:54;100048.88;;;15.39;100.00
51297;BME280;37380;45.186;9.792;2023-05-16T11:32:28;100047.06;;;15.31;100.00
51297;BME280;37380;45.186;9.792;2023-05-16T11:35:04;100047.97;;;15.34;100.00
51297;BME280;37380;45.186;9.792;2023-05-16T11:38:13;100019.84;;;15.26;100.00
51297;BME280;37380;45.186;9.792;2023-05-16T11:41:08;99974.91;;;14.86;100.00
51297;BME280;37380;45.186;9.792;2023-05-16T11:43:45;100000.53;;;15.22;100.00
51297;BME280;37380;45.186;9.792;2023-05-16T11:46:13;100004.06;;;15.26;100.00
51297;BME280;37380;45.186;9.792;2023-05-16T11:48:48;100030.50;;;15.61;100.00
51297;BME280;37380;45.186;9.792;2023-05-16T11:51:42;99936.28;;;14.76;100.00
51297;BME280;37380;45.186;9.792;2023-05-16T11:54:10;99982.88;;;14.97;100.00
51297;BME280;37380;45.186;9.792;2023-05-16T11:56:39;99990.63;;;14.77;100.00
51297;BME280;37380;45.186;9.792;2023-05-16T11:59:07;100031.28;;;15.28;100.00
51297;BME280;37380;45.186;9.792;2023-05-16T12:01:38;99972.41;;;15.12;100.00
51297;BME280;37380;45.186;9.792;2023-05-16T12:04:15;99980.22;;;14.95;100.00
51297;BME280;37380;45.186;9.792;2023-05-16T12:07:09;99954.06;;;15.26;100.00
51297;BME280;37380;45.186;9.792;2023-05-16T12:09:36;99939.06;;;15.06;100.00
51297;BME280;37380;45.186;9.792;2023-05-16T12:12:04;100034.97;;;15.68;100.00
51297;BME280;37380;45.186;9.792;2023-05-16T12:14:32;100009.50;;;15.69;100.00
51297;BME280;37380;45.186;9.792;2023-05-16T12:17:00;99974.28;;;15.37;100.00
51297;BME280;37380;45.186;9.792;2023-05-16T12:19:30;99961.97;;;15.35;100.00
51297;BME280;37380;45.186;9.792;2023-05-16T12:22:00;100030.59;;;15.69;100.00
51297;BME280;37380;45.186;9.792;2023-05-16T12:24:30;100026.13;;;15.58;100.00
51297;BME280;37380;45.186;9.792;2023-05-16T12:27:04;100052.56;;;15.80;100.00
51297;BME280;37380;45.186;9.792;2023-05-16T12:30:07;100023.50;;;15.66;100.00
51297;BME280;37380;45.186;9.792;2023-05-16T12:36:12;99984.84;;;15.50;100.00
51297;BME280;37380;45.186;9.792;2023-05-16T12:38:54;99970.03;;;15.99;100.00
51297;BME280;37380;45.186;9.792;2023-05-16T12:41:29;99984.09;;;16.57;100.00
51297;BME280;37380;45.186;9.792;2023-05-16T12:44:28;99975.81;;;17.72;100.00
51297;BME280;37380;45.186;9.792;2023-05-16T12:47:02;100002.31;;;17.52;100.00
51297;BME280;37380;45.186;9.792;2023-05-16T12:49:56;100032.84;;;18.08;100.00
51297;BME280;37380;45.186;9.792;2023-05-16T12:52:58;100016.13;;;18.04;100.00
51297;BME280;37380;45.186;9.792;2023-05-16T12:55:49;99999.16;;;18.35;100.00
51297;BME280;37380;45.186;9.792;2023-05-16T12:58:50;100005.69;;;18.94;100.00
51297;BME280;37380;45.186;9.792;2023-05-16T13:01:44;99931.19;;;18.41;100.00
51297;BME280;37380;45.186;9.792;2023-05-16T13:04:12;100050.16;;;19.40;100.00
51297;BME280;37380;45.186;9.792;2023-05-16T13:06:46;99920.97;;;18.94;100.00
51297;BME280;37380;45.186;9.792;2023-05-16T13:09:25;100041.38;;;20.06;100.00
51297;BME280;37380;45.186;9.792;2023-05-16T13:11:56;100006.59;;;19.65;100.00
51297;BME280;37380;45.186;9.792;2023-05-16T13:14:24;100055.59;;;20.02;100.00
51297;BME280;37380;45.186;9.792;2023-05-16T13:16:51;99939.81;;;19.39;100.00
51297;BME280;37380;45.186;9.792;2023-05-16T13:19:18;99981.59;;;19.85;100.00
51297;BME280;37380;45.186;9.792;2023-05-16T13:21:45;99976.97;;;19.99;100.00
51297;BME280;37380;45.186;9.792;2023-05-16T13:24:12;99984.34;;;20.33;100.00
51297;BME280;37380;45.186;9.792;2023-05-16T13:26:46;100028.09;;;20.65;100.00
51297;BME280;37380;45.186;9.792;2023-05-16T13:29:40;99962.66;;;20.64;100.00
51297;BME280;37380;45.186;9.792;2023-05-16T13:32:14;99979.97;;;20.33;100.00
51297;BME280;37380;45.186;9.792;2023-05-16T13:35:15;99977.91;;;19.95;100.00
51297;BME280;37380;45.186;9.792;2023-05-16T13:38:09;100033.06;;;20.29;100.00
51297;BME280;37380;45.186;9.792;2023-05-16T13:40:36;99969.28;;;19.81;100.00
51297;BME280;37380;45.186;9.792;2023-05-16T13:43:10;99971.16;;;19.03;100.00
51297;BME280;37380;45.186;9.792;2023-05-16T13:46:11;100024.16;;;19.76;100.00
51297;BME280;37380;45.186;9.792;2023-05-16T13:49:12;100029.34;;;19.09;100.00
51297;BME280;37380;45.186;9.792;2023-05-16T13:52:13;100028.97;;;19.41;100.00
51297;BME280;37380;45.186;9.792;2023-05-16T13:55:14;100024.13;;;19.02;100.00
51297;BME280;37380;45.186;9.792;2023-05-16T13:58:15;99956.97;;;18.19;100.00
51297;BME280;37380;45.186;9.792;2023-05-16T14:01:09;99998.88;;;18.65;100.00
51297;BME280;37380;45.186;9.792;2023-05-16T14:03:36;99981.97;;;18.82;100.00
51297;BME280;37380;45.186;9.792;2023-05-16T14:06:04;99927.16;;;18.02;100.00
51297;BME280;37380;45.186;9.792;2023-05-16T14:08:31;99922.78;;;17.96;100.00
51297;BME280;37380;45.186;9.792;2023-05-16T14:10:58;99958.63;;;18.29;100.00
51297;BME280;37380;45.186;9.792;2023-05-16T14:13:25;99856.91;;;17.70;100.00
51297;BME280;37380;45.186;9.792;2023-05-16T14:15:52;99957.69;;;18.35;100.00
51297;BME280;37380;45.186;9.792;2023-05-16T14:18:19;99974.22;;;18.60;100.00
51297;BME280;37380;45.186;9.792;2023-05-16T14:20:53;99963.69;;;18.57;100.00
51297;BME280;37380;45.186;9.792;2023-05-16T14:23:48;99978.53;;;18.76;100.00
51297;BME280;37380;45.186;9.792;2023-05-16T14:26:24;99919.03;;;19.08;100.00
51297;BME280;37380;45.186;9.792;2023-05-16T14:28:52;99982.53;;;19.14;100.00
51297;BME280;37380;45.186;9.792;2023-05-16T14:31:21;99982.47;;;19.16;100.00
51297;BME280;37380;45.186;9.792;2023-05-16T14:33:54;100028.81;;;20.19;100.00
51297;BME280;37380;45.186;9.792;2023-05-16T14:36:48;99962.59;;;20.14;100.00
51297;BME280;37380;45.186;9.792;2023-05-16T14:39:16;99981.41;;;19.99;100.00
51297;BME280;37380;45.186;9.792;2023-05-16T14:41:44;99942.06;;;20.24;100.00
51297;BME280;37380;45.186;9.792;2023-05-16T14:44:11;100028.78;;;20.22;100.00
51297;BME280;37380;45.186;9.792;2023-05-16T14:46:38;99941.94;;;19.79;100.00
51297;BME280;37380;45.186;9.792;2023-05-16T14:49:06;99984.56;;;20.22;100.00
51297;BME280;37380;45.186;9.792;2023-05-16T14:51:35;99979.78;;;20.43;100.00
51297;BME280;37380;45.186;9.792;2023-05-16T14:54:02;99914.13;;;20.04;100.00
51297;BME280;37380;45.186;9.792;2023-05-16T14:56:36;99929.41;;;20.41;100.00
51297;BME280;37380;45.186;9.792;2023-05-16T14:59:37;100000.59;;;20.69;100.00
51297;BME280;37380;45.186;9.792;2023-05-16T15:02:31;99959.44;;;20.43;100.00
51297;BME280;37380;45.186;9.792;2023-05-16T15:04:59;99914.25;;;19.95;100.00
51297;BME280;37380;45.186;9.792;2023-05-16T15:07:26;100002.75;;;20.45;100.00
51297;BME280;37380;45.186;9.792;2023-05-16T15:09:53;99933.53;;;20.06;100.00
51297;BME280;37380;45.186;9.792;2023-05-16T15:12:20;99973.19;;;20.14;100.00
51297;BME280;37380;45.186;9.792;2023-05-16T15:14:54;99945.31;;;19.90;100.00
51297;BME280;37380;45.186;9.792;2023-05-16T15:17:48;100019.97;;;20.20;100.00
51297;BME280;37380;45.186;9.792;2023-05-16T15:20:22;100013.22;;;19.97;100.00
51297;BME280;37380;45.186;9.792;2023-05-16T15:23:16;100006.69;;;19.58;100.00
51297;BME280;37380;45.186;9.792;2023-05-16T15:25:44;100013.56;;;19.76;100.00
51297;BME280;37380;45.186;9.792;2023-05-16T15:28:11;99959.34;;;19.32;100.00
51297;BME280;37380;45.186;9.792;2023-05-16T15:30:39;100015.28;;;19.77;100.00
51297;BME280;37380;45.186;9.792;2023-05-16T15:33:13;99969.44;;;19.70;100.00
51297;BME280;37380;45.186;9.792;2023-05-16T15:36:14;100017.16;;;19.68;100.00
51297;BME280;37380;45.186;9.792;2023-05-16T15:39:02;100029.13;;;19.99;100.00
51297;BME280;37380;45.186;9.792;2023-05-16T15:41:29;99981.56;;;19.88;100.00
51297;BME280;37380;45.186;9.792;2023-05-16T15:44:16;99977.16;;;19.85;100.00
51297;BME280;37380;45.186;9.792;2023-05-16T15:46:43;100004.16;;;20.13;100.00
51297;BME280;37380;45.186;9.792;2023-05-16T15:49:11;99944.38;;;19.91;100.00
51297;BME280;37380;45.186;9.792;2023-05-16T15:51:46;99988.19;;;20.17;100.00
51297;BME280;37380;45.186;9.792;2023-05-16T15:54:40;100001.56;;;20.09;100.00